sensor_id;sensor_type;location;lat;lon;timestamp;temperature;humidity
1546;DHT22;766;51.502;9.752;2023-02-28T00:01:36;-1.00;99.90
1546;DHT22;766;51.502;9.752;2023-02-28T00:04:06;-1.20;99.90
1546;DHT22;766;51.502;9.752;2023-02-28T00:06:36;-1.30;99.90
1546;DHT22;766;51.502;9.752;2023-02-28T00:09:04;-1.40;99.90
1546;DHT22;766;51.502;9.752;2023-02-28T00:11:33;-1.40;99.90
1546;DHT22;766;51.502;9.752;2023-02-28T00:14:01;-1.30;99.90
1546;DHT22;766;51.502;9.752;2023-02-28T00:16:30;-1.30;99.90
1546;DHT22;766;51.502;9.752;2023-02-28T00:18:59;-1.20;99.90
1546;DHT22;766;51.502;9.752;2023-02-28T00:21:28;-1.30;99.90
1546;DHT22;766;51.502;9.752;2023-02-28T00:23:57;-1.50;99.90
1546;DHT22;766;51.502;9.752;2023-02-28T00:26:26;-1.50;99.90
1546;DHT22;766;51.502;9.752;2023-02-28T00:28:54;-1.50;99.90
1546;DHT22;766;51.502;9.752;2023-02-28T00:31:24;-1.30;99.90
1546;DHT22;766;51.502;9.752;2023-02-28T00:33:52;-1.40;99.90
1546;DHT22;766;51.502;9.752;2023-02-28T00:36:21;-1.40;99.90
1546;DHT22;766;51.502;9.752;2023-02-28T00:38:51;-1.50;99.90
1546;DHT22;766;51.502;9.752;2023-02-28T00:41:19;-1.30;99.90
1546;DHT22;766;51.502;9.752;2023-02-28T00:43:49;-1.30;99.90
1546;DHT22;766;51.502;9.752;2023-02-28T00:46:17;-1.10;99.90
1546;DHT22;766;51.502;9.752;2023-02-28T00:48:46;-1.20;99.90
1546;DHT22;766;51.502;9.752;2023-02-28T00:51:16;-1.20;99.90
1546;DHT22;766;51.502;9.752;2023-02-28T00:53:44;-1.50;99.90
1546;DHT22;766;51.502;9.752;2023-02-28T00:56:14;-1.50;99.90
1546;DHT22;766;51.502;9.752;2023-02-28T00:58:44;-1.30;99.90
1546;DHT22;766;51.502;9.752;2023-02-28T01:01:12;-1.30;99.90
1546;DHT22;766;51.502;9.752;2023-02-28T01:03:41;-1.20;99.90
1546;DHT22;766;51.502;9.752;2023-02-28T01:06:09;-1.10;99.90
1546;DHT22;766;51.502;9.752;2023-02-28T01:08:38;-1.20;99.90
1546;DHT22;766;51.502;9.752;2023-02-28T01:11:08;-1.20;99.90
1546;DHT22;766;51.502;9.752;2023-02-28T01:13:38;-1.50;99.90
1546;DHT22;766;51.502;9.752;2023-02-28T01:16:07;-1.50;99.90
1546;DHT22;766;51.502;9.752;2023-02-28T01:18:36;-1.40;99.90
1546;DHT22;766;51.502;9.752;2023-02-28T01:21:05;-1.30;99.90
1546;DHT22;766;51.502;9.752;2023-02-28T01:23:33;-1.20;99.90
1546;DHT22;766;51.502;9.752;2023-02-28T01:26:05;-1.40;99.90
1546;DHT22;766;51.502;9.752;2023-02-28T01:28:34;-1.50;99.90
1546;DHT22;766;51.502;9.752;2023-02-28T01:31:05;-1.50;99.90
1546;DHT22;766;51.502;9.752;2023-02-28T01:33:34;-1.70;99.90
1546;DHT22;766;51.502;9.752;2023-02-28T01:36:05;-1.60;99.90
1546;DHT22;766;51.502;9.752;2023-02-28T01:38:34;-1.50;99.90
1546;DHT22;766;51.502;9.752;2023-02-28T01:41:04;-1.60;99.90
1546;DHT22;766;51.502;9.752;2023-02-28T01:43:53;-1.50;99.90
1546;DHT22;766;51.502;9.752;2023-02-28T01:46:23;-1.40;99.90
1546;DHT22;766;51.502;9.752;2023-02-28T01:48:54;-1.20;99.90
1546;DHT22;766;51.502;9.752;2023-02-28T01:51:28;-1.20;99.90
1546;DHT22;766;51.502;9.752;2023-02-28T01:54:03;-1.20;99.90
1546;DHT22;766;51.502;9.752;2023-02-28T01:56:35;-1.40;99.90
1546;DHT22;766;51.502;9.752;2023-02-28T01:59:04;-1.30;99.90
1546;DHT22;766;51.502;9.752;2023-02-28T02:01:34;-1.30;99.90
1546;DHT22;766;51.502;9.752;2023-02-28T02:04:03;-1.30;99.90
1546;DHT22;766;51.502;9.752;2023-02-28T02:06:36;-1.30;99.90
1546;DHT22;766;51.502;9.752;2023-02-28T02:09:05;-1.40;99.90
1546;DHT22;766;51.502;9.752;2023-02-28T02:11:34;-1.40;99.90
1546;DHT22;766;51.502;9.752;2023-02-28T02:14:48;-1.40;99.90
1546;DHT22;766;51.502;9.752;2023-02-28T02:17:28;-1.40;99.90
1546;DHT22;766;51.502;9.752;2023-02-28T02:20:22;-1.30;99.90
1546;DHT22;766;51.502;9.752;2023-02-28T02:23:31;-1.40;99.90
1546;DHT22;766;51.502;9.752;2023-02-28T02:29:25;-1.40;99.90
1546;DHT22;766;51.502;9.752;2023-02-28T02:32:17;-1.40;99.90
1546;DHT22;766;51.502;9.752;2023-02-28T02:35:00;-1.40;99.90
1546;DHT22;766;51.502;9.752;2023-02-28T02:37:36;-1.50;99.90
1546;DHT22;766;51.502;9.752;2023-02-28T02:40:12;-1.70;99.90
1546;DHT22;766;51.502;9.752;2023-02-28T02:42:47;-1.40;99.90
1546;DHT22;766;51.502;9.752;2023-02-28T02:45:26;-1.30;99.90
1546;DHT22;766;51.502;9.752;2023-02-28T02:48:04;-1.20;99.90
1546;DHT22;766;51.502;9.752;2023-02-28T02:50:38;-1.10;99.90
1546;DHT22;766;51.502;9.752;2023-02-28T02:53:09;-1.10;99.90
1546;DHT22;766;51.502;9.752;2023-02-28T02:55:41;-1.20;99.90
1546;DHT22;766;51.502;9.752;2023-02-28T02:58:15;-1.30;99.90
1546;DHT22;766;51.502;9.752;2023-02-28T03:00:48;-1.40;99.90
1546;DHT22;766;51.502;9.752;2023-02-28T03:03:19;-1.30;99.90
1546;DHT22;766;51.502;9.752;2023-02-28T03:05:59;-1.30;99.90
1546;DHT22;766;51.502;9.752;2023-02-28T03:08:29;-1.40;99.90
1546;DHT22;766;51.502;9.752;2023-02-28T03:11:00;-1.40;99.90
1546;DHT22;766;51.502;9.752;2023-02-28T03:13:58;-1.40;99.90
1546;DHT22;766;51.502;9.752;2023-02-28T03:16:34;-1.40;99.90
1546;DHT22;766;51.502;9.752;2023-02-28T03:19:25;-1.20;99.90
1546;DHT22;766;51.502;9.752;2023-02-28T03:22:14;-1.20;99.90
1546;DHT22;766;51.502;9.752;2023-02-28T03:24:49;-1.00;99.90
1546;DHT22;766;51.502;9.752;2023-02-28T03:27:24;-1.00;99.90
1546;DHT22;766;51.502;9.752;2023-02-28T03:29:59;-1.00;99.90
1546;DHT22;766;51.502;9.752;2023-02-28T03:32:33;-1.10;99.90
1546;DHT22;766;51.502;9.752;2023-02-28T03:35:06;-0.90;99.90
1546;DHT22;766;51.502;9.752;2023-02-28T03:37:41;-0.80;99.90
1546;DHT22;766;51.502;9.752;2023-02-28T03:40:14;-0.80;99.90
1546;DHT22;766;51.502;9.752;2023-02-28T03:42:48;-0.70;99.90
1546;DHT22;766;51.502;9.752;2023-02-28T03:45:21;-0.70;99.90
1546;DHT22;766;51.502;9.752;2023-02-28T03:47:53;-0.70;99.90
1546;DHT22;766;51.502;9.752;2023-02-28T03:50:25;-0.70;99.90
1546;DHT22;766;51.502;9.752;2023-02-28T03:53:01;-0.70;99.90
1546;DHT22;766;51.502;9.752;2023-02-28T03:55:37;-0.70;99.90
1546;DHT22;766;51.502;9.752;2023-02-28T03:58:14;-0.70;99.90
1546;DHT22;766;51.502;9.752;2023-02-28T04:00:47;-0.70;99.90
1546;DHT22;766;51.502;9.752;2023-02-28T04:03:16;-0.70;99.90
1546;DHT22;766;51.502;9.752;2023-02-28T04:05:52;-0.80;99.90
1546;DHT22;766;51.502;9.752;2023-02-28T04:08:22;-0.90;99.90
1546;DHT22;766;51.502;9.752;2023-02-28T04:10:55;-0.80;99.90
1546;DHT22;766;51.502;9.752;2023-02-28T04:13:25;-0.90;99.90
1546;DHT22;766;51.502;9.752;2023-02-28T04:15:54;-1.10;99.90
1546;DHT22;766;51.502;9.752;2023-02-28T04:18:23;-1.10;99.90
1546;DHT22;766;51.502;9.752;2023-02-28T04:20:52;-1.00;99.90
1546;DHT22;766;51.502;9.752;2023-02-28T04:23:22;-1.00;99.90
1546;DHT22;766;51.502;9.752;2023-02-28T04:25:54;-1.10;99.90
1546;DHT22;766;51.502;9.752;2023-02-28T04:28:23;-1.20;99.90
1546;DHT22;766;51.502;9.752;2023-02-28T04:30:55;-1.10;99.90
1546;DHT22;766;51.502;9.752;2023-02-28T04:33:23;-1.10;99.90
1546;DHT22;766;51.502;9.752;2023-02-28T04:35:59;-1.10;99.90
1546;DHT22;766;51.502;9.752;2023-02-28T04:38:33;-0.90;99.90
1546;DHT22;766;51.502;9.752;2023-02-28T04:41:01;-0.90;99.90
1546;DHT22;766;51.502;9.752;2023-02-28T04:43:31;-1.00;99.90
1546;DHT22;766;51.502;9.752;2023-02-28T04:46:03;-1.00;99.90
1546;DHT22;766;51.502;9.752;2023-02-28T04:48:34;-1.00;99.90
1546;DHT22;766;51.502;9.752;2023-02-28T04:51:03;-1.10;99.90
1546;DHT22;766;51.502;9.752;2023-02-28T04:53:34;-1.00;99.90
1546;DHT22;766;51.502;9.752;2023-02-28T04:56:02;-0.90;99.90
1546;DHT22;766;51.502;9.752;2023-02-28T04:58:32;-0.80;99.90
1546;DHT22;766;51.502;9.752;2023-02-28T05:01:04;-0.70;99.90
1546;DHT22;766;51.502;9.752;2023-02-28T05:03:39;-0.80;99.90
1546;DHT22;766;51.502;9.752;2023-02-28T05:06:08;-0.90;99.90
1546;DHT22;766;51.502;9.752;2023-02-28T05:08:39;-0.90;99.90
1546;DHT22;766;51.502;9.752;2023-02-28T05:11:17;-1.00;99.90
1546;DHT22;766;51.502;9.752;2023-02-28T05:13:47;-1.00;99.90
1546;DHT22;766;51.502;9.752;2023-02-28T05:16:17;-1.00;99.90
1546;DHT22;766;51.502;9.752;2023-02-28T05:18:46;-0.90;99.90
1546;DHT22;766;51.502;9.752;2023-02-28T05:21:28;-0.90;99.90
1546;DHT22;766;51.502;9.752;2023-02-28T05:24:01;-0.80;99.90
1546;DHT22;766;51.502;9.752;2023-02-28T05:26:29;-0.70;99.90
1546;DHT22;766;51.502;9.752;2023-02-28T05:29:01;-0.70;99.90
1546;DHT22;766;51.502;9.752;2023-02-28T05:31:30;-0.60;99.90
1546;DHT22;766;51.502;9.752;2023-02-28T05:33:59;-0.70;99.90
1546;DHT22;766;51.502;9.752;2023-02-28T05:36:28;-0.80;99.90
1546;DHT22;766;51.502;9.752;2023-02-28T05:38:56;-0.80;99.90
1546;DHT22;766;51.502;9.752;2023-02-28T05:41:26;-0.70;99.90
1546;DHT22;766;51.502;9.752;2023-02-28T05:43:55;-0.80;99.90
1546;DHT22;766;51.502;9.752;2023-02-28T05:46:26;-0.70;99.90
1546;DHT22;766;51.502;9.752;2023-02-28T05:48:55;-0.90;99.90
1546;DHT22;766;51.502;9.752;2023-02-28T05:51:26;-0.90;99.90
1546;DHT22;766;51.502;9.752;2023-02-28T05:54:01;-0.80;99.90
1546;DHT22;766;51.502;9.752;2023-02-28T05:56:31;-0.70;99.90
1546;DHT22;766;51.502;9.752;2023-02-28T05:59:01;-0.80;99.90
1546;DHT22;766;51.502;9.752;2023-02-28T06:01:33;-0.80;99.90
1546;DHT22;766;51.502;9.752;2023-02-28T06:04:03;-0.80;99.90
1546;DHT22;766;51.502;9.752;2023-02-28T06:06:32;-0.80;99.90
1546;DHT22;766;51.502;9.752;2023-02-28T06:09:03;-0.70;99.90
1546;DHT22;766;51.502;9.752;2023-02-28T06:11:34;-0.80;99.90
1546;DHT22;766;51.502;9.752;2023-02-28T06:14:03;-0.80;99.90
1546;DHT22;766;51.502;9.752;2023-02-28T06:16:34;-0.80;99.90
1546;DHT22;766;51.502;9.752;2023-02-28T06:19:04;-0.80;99.90
1546;DHT22;766;51.502;9.752;2023-02-28T06:21:36;-0.80;99.90
1546;DHT22;766;51.502;9.752;2023-02-28T06:24:04;-0.90;99.90
1546;DHT22;766;51.502;9.752;2023-02-28T06:26:34;-0.90;99.90
1546;DHT22;766;51.502;9.752;2023-02-28T06:29:04;-0.80;99.90
1546;DHT22;766;51.502;9.752;2023-02-28T06:31:32;-0.70;99.90
1546;DHT22;766;51.502;9.752;2023-02-28T06:34:01;-0.80;99.90
1546;DHT22;766;51.502;9.752;2023-02-28T06:36:29;-0.80;99.90
1546;DHT22;766;51.502;9.752;2023-02-28T06:38:57;-0.80;99.90
1546;DHT22;766;51.502;9.752;2023-02-28T06:41:26;-0.80;99.90
1546;DHT22;766;51.502;9.752;2023-02-28T06:43:59;-0.70;99.90
1546;DHT22;766;51.502;9.752;2023-02-28T06:46:28;-0.60;99.90
1546;DHT22;766;51.502;9.752;2023-02-28T06:48:57;-0.60;99.90
1546;DHT22;766;51.502;9.752;2023-02-28T06:51:25;-0.70;99.90
1546;DHT22;766;51.502;9.752;2023-02-28T06:53:54;-0.60;99.90
1546;DHT22;766;51.502;9.752;2023-02-28T06:56:22;-0.50;99.90
1546;DHT22;766;51.502;9.752;2023-02-28T06:58:51;-0.40;99.90
1546;DHT22;766;51.502;9.752;2023-02-28T07:01:21;-0.40;99.90
1546;DHT22;766;51.502;9.752;2023-02-28T07:03:51;-0.40;99.90
1546;DHT22;766;51.502;9.752;2023-02-28T07:06:20;-0.40;99.90
1546;DHT22;766;51.502;9.752;2023-02-28T07:08:50;-0.40;99.90
1546;DHT22;766;51.502;9.752;2023-02-28T07:11:20;-0.30;99.90
1546;DHT22;766;51.502;9.752;2023-02-28T07:13:49;-0.40;99.90
1546;DHT22;766;51.502;9.752;2023-02-28T07:16:18;-0.50;99.90
1546;DHT22;766;51.502;9.752;2023-02-28T07:18:48;-0.60;99.90
1546;DHT22;766;51.502;9.752;2023-02-28T07:21:21;-0.60;99.90
1546;DHT22;766;51.502;9.752;2023-02-28T07:23:49;-0.40;99.90
1546;DHT22;766;51.502;9.752;2023-02-28T07:26:19;-0.40;99.90
1546;DHT22;766;51.502;9.752;2023-02-28T07:28:48;-0.30;99.90
1546;DHT22;766;51.502;9.752;2023-02-28T07:31:17;-0.10;99.90
1546;DHT22;766;51.502;9.752;2023-02-28T07:33:47;0.10;99.90
1546;DHT22;766;51.502;9.752;2023-02-28T07:36:17;0.10;99.90
1546;DHT22;766;51.502;9.752;2023-02-28T07:38:48;0.20;99.90
1546;DHT22;766;51.502;9.752;2023-02-28T07:41:19;0.20;99.90
1546;DHT22;766;51.502;9.752;2023-02-28T07:43:48;0.00;99.90
1546;DHT22;766;51.502;9.752;2023-02-28T07:46:17;0.10;99.90
1546;DHT22;766;51.502;9.752;2023-02-28T07:48:48;0.10;99.90
1546;DHT22;766;51.502;9.752;2023-02-28T07:51:17;-0.10;99.90
1546;DHT22;766;51.502;9.752;2023-02-28T07:53:46;-0.10;99.90
1546;DHT22;766;51.502;9.752;2023-02-28T07:56:14;0.10;99.90
1546;DHT22;766;51.502;9.752;2023-02-28T07:58:43;0.20;99.90
1546;DHT22;766;51.502;9.752;2023-02-28T08:01:13;0.20;99.90
1546;DHT22;766;51.502;9.752;2023-02-28T08:03:44;0.40;99.90
1546;DHT22;766;51.502;9.752;2023-02-28T08:06:19;0.50;99.90
1546;DHT22;766;51.502;9.752;2023-02-28T08:08:49;0.70;99.90
1546;DHT22;766;51.502;9.752;2023-02-28T08:11:17;0.80;99.90
1546;DHT22;766;51.502;9.752;2023-02-28T08:13:46;0.90;99.90
1546;DHT22;766;51.502;9.752;2023-02-28T08:16:15;1.00;99.90
1546;DHT22;766;51.502;9.752;2023-02-28T08:18:51;1.10;99.90
1546;DHT22;766;51.502;9.752;2023-02-28T08:21:21;1.10;99.90
1546;DHT22;766;51.502;9.752;2023-02-28T08:23:50;1.30;99.90
1546;DHT22;766;51.502;9.752;2023-02-28T08:26:19;1.10;99.90
1546;DHT22;766;51.502;9.752;2023-02-28T08:28:48;1.10;99.90
1546;DHT22;766;51.502;9.752;2023-02-28T08:31:17;1.00;99.90
1546;DHT22;766;51.502;9.752;2023-02-28T08:33:46;1.10;99.90
1546;DHT22;766;51.502;9.752;2023-02-28T08:36:18;1.30;99.90
1546;DHT22;766;51.502;9.752;2023-02-28T08:38:48;1.30;99.90
1546;DHT22;766;51.502;9.752;2023-02-28T08:41:16;1.30;99.90
1546;DHT22;766;51.502;9.752;2023-02-28T08:43:45;1.20;99.90
1546;DHT22;766;51.502;9.752;2023-02-28T08:46:14;1.40;99.90
1546;DHT22;766;51.502;9.752;2023-02-28T08:48:42;1.40;99.90
1546;DHT22;766;51.502;9.752;2023-02-28T08:51:12;1.50;99.90
1546;DHT22;766;51.502;9.752;2023-02-28T08:53:44;1.80;99.90
1546;DHT22;766;51.502;9.752;2023-02-28T08:56:15;2.00;99.90
1546;DHT22;766;51.502;9.752;2023-02-28T08:58:45;1.70;99.90
1546;DHT22;766;51.502;9.752;2023-02-28T09:01:15;1.80;99.90
1546;DHT22;766;51.502;9.752;2023-02-28T09:03:46;1.80;99.90
1546;DHT22;766;51.502;9.752;2023-02-28T09:18:58;2.20;99.90
1546;DHT22;766;51.502;9.752;2023-02-28T09:23:53;1.80;99.90
1546;DHT22;766;51.502;9.752;2023-02-28T09:41:30;2.40;99.90
1546;DHT22;766;51.502;9.752;2023-02-28T09:44:44;2.40;99.90
1546;DHT22;766;51.502;9.752;2023-02-28T09:47:18;2.30;99.90
1546;DHT22;766;51.502;9.752;2023-02-28T09:50:18;2.30;99.90
1546;DHT22;766;51.502;9.752;2023-02-28T09:57:37;2.50;99.90
1546;DHT22;766;51.502;9.752;2023-02-28T10:01:24;2.70;99.90
1546;DHT22;766;51.502;9.752;2023-02-28T10:08:14;2.30;99.90
1546;DHT22;766;51.502;9.752;2023-02-28T10:10:48;2.50;99.90
1546;DHT22;766;51.502;9.752;2023-02-28T10:13:25;2.40;99.90
1546;DHT22;766;51.502;9.752;2023-02-28T10:16:01;1.90;99.90
1546;DHT22;766;51.502;9.752;2023-02-28T10:18:40;2.00;99.90
1546;DHT22;766;51.502;9.752;2023-02-28T10:21:18;2.50;99.90
1546;DHT22;766;51.502;9.752;2023-02-28T10:23:48;2.90;99.90
1546;DHT22;766;51.502;9.752;2023-02-28T10:26:19;2.80;99.90
1546;DHT22;766;51.502;9.752;2023-02-28T10:28:51;2.50;99.90
1546;DHT22;766;51.502;9.752;2023-02-28T10:31:20;2.50;99.90
1546;DHT22;766;51.502;9.752;2023-02-28T10:33:53;2.70;99.90
1546;DHT22;766;51.502;9.752;2023-02-28T10:36:21;2.80;99.90
1546;DHT22;766;51.502;9.752;2023-02-28T10:38:50;3.10;99.90
1546;DHT22;766;51.502;9.752;2023-02-28T10:41:27;3.30;99.90
1546;DHT22;766;51.502;9.752;2023-02-28T10:44:19;3.20;99.90
1546;DHT22;766;51.502;9.752;2023-02-28T10:46:49;2.60;99.90
1546;DHT22;766;51.502;9.752;2023-02-28T10:49:20;2.40;99.90
1546;DHT22;766;51.502;9.752;2023-02-28T10:51:52;2.30;99.90
1546;DHT22;766;51.502;9.752;2023-02-28T10:54:23;2.90;99.90
1546;DHT22;766;51.502;9.752;2023-02-28T10:57:18;3.40;99.90
1546;DHT22;766;51.502;9.752;2023-02-28T10:59:51;2.70;99.90
1546;DHT22;766;51.502;9.752;2023-02-28T11:02:31;2.50;99.90
1546;DHT22;766;51.502;9.752;2023-02-28T11:05:00;3.00;99.90
1546;DHT22;766;51.502;9.752;2023-02-28T11:07:29;3.10;99.90
1546;DHT22;766;51.502;9.752;2023-02-28T11:10:20;3.70;99.90
1546;DHT22;766;51.502;9.752;2023-02-28T11:12:49;3.60;99.90
1546;DHT22;766;51.502;9.752;2023-02-28T11:15:24;3.50;99.90
1546;DHT22;766;51.502;9.752;2023-02-28T11:17:54;3.90;99.90
1546;DHT22;766;51.502;9.752;2023-02-28T11:20:26;4.40;99.90
1546;DHT22;766;51.502;9.752;2023-02-28T11:22:57;3.70;99.90
1546;DHT22;766;51.502;9.752;2023-02-28T11:25:33;3.30;99.90
1546;DHT22;766;51.502;9.752;2023-02-28T11:28:03;3.50;99.90
1546;DHT22;766;51.502;9.752;2023-02-28T11:30:36;3.50;99.90
1546;DHT22;766;51.502;9.752;2023-02-28T11:33:21;3.60;99.90
1546;DHT22;766;51.502;9.752;2023-02-28T11:35:51;4.00;99.90
1546;DHT22;766;51.502;9.752;2023-02-28T11:38:21;4.60;99.90
1546;DHT22;766;51.502;9.752;2023-02-28T11:41:01;4.80;99.90
1546;DHT22;766;51.502;9.752;2023-02-28T11:43:40;4.20;99.90
1546;DHT22;766;51.502;9.752;2023-02-28T11:46:23;4.40;99.90
1546;DHT22;766;51.502;9.752;2023-02-28T11:49:03;4.20;99.90
1546;DHT22;766;51.502;9.752;2023-02-28T11:51:47;4.80;99.90
1546;DHT22;766;51.502;9.752;2023-02-28T11:54:28;4.80;99.90
1546;DHT22;766;51.502;9.752;2023-02-28T11:57:07;4.40;99.90
1546;DHT22;766;51.502;9.752;2023-02-28T11:59:48;4.80;99.90
1546;DHT22;766;51.502;9.752;2023-02-28T12:02:24;4.70;99.90
1546;DHT22;766;51.502;9.752;2023-02-28T12:05:15;4.60;99.90
1546;DHT22;766;51.502;9.752;2023-02-28T12:07:55;4.20;99.90
1546;DHT22;766;51.502;9.752;2023-02-28T12:10:27;4.50;99.90
1546;DHT22;766;51.502;9.752;2023-02-28T12:13:12;4.70;99.90
1546;DHT22;766;51.502;9.752;2023-02-28T12:16:01;4.80;99.90
1546;DHT22;766;51.502;9.752;2023-02-28T12:18:53;4.80;99.90
1546;DHT22;766;51.502;9.752;2023-02-28T12:21:31;4.80;99.90
1546;DHT22;766;51.502;9.752;2023-02-28T12:24:15;4.70;99.90
1546;DHT22;766;51.502;9.752;2023-02-28T12:26:47;5.10;99.90
1546;DHT22;766;51.502;9.752;2023-02-28T12:29:19;5.60;99.90
1546;DHT22;766;51.502;9.752;2023-02-28T12:31:55;5.60;99.90
1546;DHT22;766;51.502;9.752;2023-02-28T12:34:31;5.70;99.90
1546;DHT22;766;51.502;9.752;2023-02-28T12:37:06;4.80;99.90
1546;DHT22;766;51.502;9.752;2023-02-28T12:39:39;4.60;99.90
1546;DHT22;766;51.502;9.752;2023-02-28T12:42:24;4.40;99.90
1546;DHT22;766;51.502;9.752;2023-02-28T12:44:59;4.70;99.90
1546;DHT22;766;51.502;9.752;2023-02-28T12:47:27;5.00;99.90
1546;DHT22;766;51.502;9.752;2023-02-28T12:50:00;5.10;99.90
1546;DHT22;766;51.502;9.752;2023-02-28T12:52:39;5.20;99.90
1546;DHT22;766;51.502;9.752;2023-02-28T12:55:16;5.70;99.90
1546;DHT22;766;51.502;9.752;2023-02-28T12:57:52;6.20;99.90
1546;DHT22;766;51.502;9.752;2023-02-28T13:00:27;4.90;99.90
1546;DHT22;766;51.502;9.752;2023-02-28T13:06:20;5.50;99.90
1546;DHT22;766;51.502;9.752;2023-02-28T13:09:05;5.40;99.90
1546;DHT22;766;51.502;9.752;2023-02-28T13:11:41;4.30;99.90
1546;DHT22;766;51.502;9.752;2023-02-28T13:14:24;4.80;99.90
1546;DHT22;766;51.502;9.752;2023-02-28T13:16:59;4.70;99.90
1546;DHT22;766;51.502;9.752;2023-02-28T13:19:30;4.80;99.90
1546;DHT22;766;51.502;9.752;2023-02-28T13:22:03;4.30;99.90
1546;DHT22;766;51.502;9.752;2023-02-28T13:24:45;4.90;99.90
1546;DHT22;766;51.502;9.752;2023-02-28T13:27:35;5.80;99.90
1546;DHT22;766;51.502;9.752;2023-02-28T13:33:27;6.00;99.90
1546;DHT22;766;51.502;9.752;2023-02-28T13:36:11;6.20;99.90
1546;DHT22;766;51.502;9.752;2023-02-28T13:38:53;6.00;99.90
1546;DHT22;766;51.502;9.752;2023-02-28T13:41:46;6.40;99.90
1546;DHT22;766;51.502;9.752;2023-02-28T13:44:18;6.50;99.90
1546;DHT22;766;51.502;9.752;2023-02-28T13:50:24;4.30;99.90
1546;DHT22;766;51.502;9.752;2023-02-28T13:53:26;3.80;99.90
1546;DHT22;766;51.502;9.752;2023-02-28T13:56:05;3.90;99.90
1546;DHT22;766;51.502;9.752;2023-02-28T13:58:43;3.90;99.90
1546;DHT22;766;51.502;9.752;2023-02-28T14:01:48;4.40;99.90
1546;DHT22;766;51.502;9.752;2023-02-28T14:07:30;5.40;99.90
1546;DHT22;766;51.502;9.752;2023-02-28T14:10:04;4.40;99.90
1546;DHT22;766;51.502;9.752;2023-02-28T14:12:57;5.10;99.90
1546;DHT22;766;51.502;9.752;2023-02-28T14:15:34;4.50;99.90
1546;DHT22;766;51.502;9.752;2023-02-28T14:18:11;4.40;99.90
1546;DHT22;766;51.502;9.752;2023-02-28T14:20:42;5.30;99.90
1546;DHT22;766;51.502;9.752;2023-02-28T14:23:17;4.70;99.90
1546;DHT22;766;51.502;9.752;2023-02-28T14:25:56;4.50;99.90
1546;DHT22;766;51.502;9.752;2023-02-28T14:28:46;4.30;99.90
1546;DHT22;766;51.502;9.752;2023-02-28T14:31:22;3.90;99.90
1546;DHT22;766;51.502;9.752;2023-02-28T14:34:05;3.70;99.90
1546;DHT22;766;51.502;9.752;2023-02-28T14:36:41;3.40;99.90
1546;DHT22;766;51.502;9.752;2023-02-28T14:39:13;3.40;99.90
1546;DHT22;766;51.502;9.752;2023-02-28T14:41:43;3.60;99.90
1546;DHT22;766;51.502;9.752;2023-02-28T14:44:19;3.70;99.90
1546;DHT22;766;51.502;9.752;2023-02-28T14:46:53;3.40;99.90
1546;DHT22;766;51.502;9.752;2023-02-28T14:49:27;3.40;99.90
1546;DHT22;766;51.502;9.752;2023-02-28T14:52:06;3.30;99.90
1546;DHT22;766;51.502;9.752;2023-02-28T14:54:36;3.20;99.90
1546;DHT22;766;51.502;9.752;2023-02-28T14:57:05;3.40;99.90
1546;DHT22;766;51.502;9.752;2023-02-28T14:59:36;3.60;99.90
1546;DHT22;766;51.502;9.752;2023-02-28T15:02:15;3.30;99.90
1546;DHT22;766;51.502;9.752;2023-02-28T15:04:55;3.20;99.90
1546;DHT22;766;51.502;9.752;2023-02-28T15:07:25;3.50;99.90
1546;DHT22;766;51.502;9.752;2023-02-28T15:10:17;3.30;99.90
1546;DHT22;766;51.502;9.752;2023-02-28T15:12:52;3.40;99.90
1546;DHT22;766;51.502;9.752;2023-02-28T15:15:39;3.70;99.90
1546;DHT22;766;51.502;9.752;2023-02-28T15:18:30;3.70;99.90
1546;DHT22;766;51.502;9.752;2023-02-28T15:21:02;3.20;99.90
1546;DHT22;766;51.502;9.752;2023-02-28T15:23:32;3.30;99.90
1546;DHT22;766;51.502;9.752;2023-02-28T15:26:03;3.20;99.90
1546;DHT22;766;51.502;9.752;2023-02-28T15:28:33;3.00;99.90
1546;DHT22;766;51.502;9.752;2023-02-28T15:31:19;2.90;99.90
1546;DHT22;766;51.502;9.752;2023-02-28T15:33:54;2.90;99.90
1546;DHT22;766;51.502;9.752;2023-02-28T15:36:25;3.10;99.90
1546;DHT22;766;51.502;9.752;2023-02-28T15:38:55;3.20;99.90
1546;DHT22;766;51.502;9.752;2023-02-28T15:41:41;3.20;99.90
1546;DHT22;766;51.502;9.752;2023-02-28T15:44:33;3.20;99.90
1546;DHT22;766;51.502;9.752;2023-02-28T15:47:12;3.10;99.90
1546;DHT22;766;51.502;9.752;2023-02-28T15:49:48;3.00;99.90
1546;DHT22;766;51.502;9.752;2023-02-28T15:52:20;3.00;99.90
1546;DHT22;766;51.502;9.752;2023-02-28T15:54:49;3.00;99.90
1546;DHT22;766;51.502;9.752;2023-02-28T15:57:21;3.00;99.90
1546;DHT22;766;51.502;9.752;2023-02-28T15:59:55;3.00;99.90
1546;DHT22;766;51.502;9.752;2023-02-28T16:02:32;2.80;99.90
1546;DHT22;766;51.502;9.752;2023-02-28T16:05:21;2.60;99.90
1546;DHT22;766;51.502;9.752;2023-02-28T16:07:56;2.60;99.90
1546;DHT22;766;51.502;9.752;2023-02-28T16:10:26;2.60;99.90
1546;DHT22;766;51.502;9.752;2023-02-28T16:12:57;2.60;99.90
1546;DHT22;766;51.502;9.752;2023-02-28T16:15:27;2.50;99.90
1546;DHT22;766;51.502;9.752;2023-02-28T16:17:58;2.50;99.90
1546;DHT22;766;51.502;9.752;2023-02-28T16:20:30;2.40;99.90
1546;DHT22;766;51.502;9.752;2023-02-28T16:23:00;2.40;99.90
1546;DHT22;766;51.502;9.752;2023-02-28T16:25:35;2.40;99.90
1546;DHT22;766;51.502;9.752;2023-02-28T16:28:05;2.40;99.90
1546;DHT22;766;51.502;9.752;2023-02-28T16:30:36;2.40;99.90
1546;DHT22;766;51.502;9.752;2023-02-28T16:33:08;2.50;99.90
1546;DHT22;766;51.502;9.752;2023-02-28T16:35:37;2.30;99.90
1546;DHT22;766;51.502;9.752;2023-02-28T16:38:05;2.20;99.90
1546;DHT22;766;51.502;9.752;2023-02-28T16:40:37;2.10;99.90
1546;DHT22;766;51.502;9.752;2023-02-28T16:43:09;2.00;99.90
1546;DHT22;766;51.502;9.752;2023-02-28T16:45:39;2.00;99.90
1546;DHT22;766;51.502;9.752;2023-02-28T16:48:12;2.00;99.90
1546;DHT22;766;51.502;9.752;2023-02-28T16:50:44;1.90;99.90
1546;DHT22;766;51.502;9.752;2023-02-28T16:53:12;2.00;99.90
1546;DHT22;766;51.502;9.752;2023-02-28T16:55:41;2.00;99.90
1546;DHT22;766;51.502;9.752;2023-02-28T16:58:14;1.80;99.90
1546;DHT22;766;51.502;9.752;2023-02-28T17:00:45;1.80;99.90
1546;DHT22;766;51.502;9.752;2023-02-28T17:03:22;1.60;99.90
1546;DHT22;766;51.502;9.752;2023-02-28T17:05:59;1.70;99.90
1546;DHT22;766;51.502;9.752;2023-02-28T17:08:28;1.60;99.90
1546;DHT22;766;51.502;9.752;2023-02-28T17:10:56;1.50;99.90
1546;DHT22;766;51.502;9.752;2023-02-28T17:13:25;1.50;99.90
1546;DHT22;766;51.502;9.752;2023-02-28T17:15:53;1.50;99.90
1546;DHT22;766;51.502;9.752;2023-02-28T17:18:24;1.40;99.90
1546;DHT22;766;51.502;9.752;2023-02-28T17:20:53;1.30;99.90
1546;DHT22;766;51.502;9.752;2023-02-28T17:23:21;1.30;99.90
1546;DHT22;766;51.502;9.752;2023-02-28T17:25:50;1.30;99.90
1546;DHT22;766;51.502;9.752;2023-02-28T17:28:24;1.30;99.90
1546;DHT22;766;51.502;9.752;2023-02-28T17:30:57;1.30;99.90
1546;DHT22;766;51.502;9.752;2023-02-28T17:33:26;1.40;99.90
1546;DHT22;766;51.502;9.752;2023-02-28T17:35:55;1.50;99.90
1546;DHT22;766;51.502;9.752;2023-02-28T17:38:23;1.30;99.90
1546;DHT22;766;51.502;9.752;2023-02-28T17:40:55;1.20;99.90
1546;DHT22;766;51.502;9.752;2023-02-28T17:43:25;1.30;99.90
1546;DHT22;766;51.502;9.752;2023-02-28T17:45:54;1.30;99.90
1546;DHT22;766;51.502;9.752;2023-02-28T17:48:22;1.20;99.90
1546;DHT22;766;51.502;9.752;2023-02-28T17:50:53;1.20;99.90
1546;DHT22;766;51.502;9.752;2023-02-28T17:53:21;1.20;99.90
1546;DHT22;766;51.502;9.752;2023-02-28T17:55:50;1.20;99.90
1546;DHT22;766;51.502;9.752;2023-02-28T17:58:19;1.20;99.90
1546;DHT22;766;51.502;9.752;2023-02-28T18:00:48;1.20;99.90
1546;DHT22;766;51.502;9.752;2023-02-28T18:03:20;1.10;99.90
1546;DHT22;766;51.502;9.752;2023-02-28T18:05:49;0.90;99.90